Time;durP1;ratioP1;P1;durP2;ratioP2;P2;SDS_P1;SDS_P2;PMS_P1;PMS_P2;Temp;Humidity;BMP_temperature;BMP_pressure;BME280_temperature;BME280_humidity;BME280_pressure;Samples;Min_cycle;Max_cycle;Signal;HPM_P1;HPM_P2
2021/08/09 00:01:54;;;;;;;4.97;1.80;;;18.70;97.20;;;;;;6161519;23;20411;-83
2021/08/09 00:04:20;;;;;;;4.30;2.30;;;18.80;96.80;;;;;;6163037;23;20732;-81
2021/08/09 00:06:47;;;;;;;2.40;1.67;;;18.80;97.00;;;;;;6135516;23;20410;-83
2021/08/09 00:09:14;;;;;;;3.83;2.23;;;18.80;97.20;;;;;;6161575;23;20442;-81
2021/08/09 00:11:40;;;;;;;1.70;1.60;;;18.70;97.10;;;;;;6133146;23;20433;-83
2021/08/09 00:14:07;;;;;;;2.43;1.80;;;18.70;97.40;;;;;;6161934;23;20413;-83
2021/08/09 00:16:34;;;;;;;2.53;1.80;;;18.70;97.10;;;;;;6162350;23;20435;-83
2021/08/09 00:19:01;;;;;;;4.57;1.97;;;18.80;97.20;;;;;;6162740;23;20424;-83
2021/08/09 00:21:28;;;;;;;2.13;1.90;;;18.70;97.10;;;;;;6160595;23;20430;-82
2021/08/09 00:23:54;;;;;;;4.47;2.07;;;18.70;97.20;;;;;;6160172;23;20479;-84
2021/08/09 00:26:22;;;;;;;2.50;1.73;;;18.60;97.30;;;;;;6134743;23;20465;-83
2021/08/09 00:28:49;;;;;;;4.03;1.60;;;18.60;97.50;;;;;;6162230;23;20439;-83
2021/08/09 00:31:15;;;;;;;4.33;1.73;;;18.50;97.70;;;;;;6169283;23;20407;-85
2021/08/09 00:33:42;;;;;;;2.70;1.70;;;18.60;97.80;;;;;;6173571;23;20434;-81
2021/08/09 00:36:09;;;;;;;2.03;1.63;;;18.60;97.70;;;;;;6143116;23;20482;-82
2021/08/09 00:38:35;;;;;;;2.50;1.80;;;18.50;97.80;;;;;;6166480;23;20395;-81
2021/08/09 00:41:02;;;;;;;2.30;1.73;;;18.50;98.10;;;;;;6138662;23;21016;-82
2021/08/09 00:43:29;;;;;;;2.10;1.70;;;18.50;97.70;;;;;;6164457;23;20727;-82
2021/08/09 00:45:57;;;;;;;1.87;1.60;;;18.60;97.70;;;;;;6162019;23;20425;-80
2021/08/09 00:48:26;;;;;;;2.10;1.67;;;18.50;97.70;;;;;;6163366;23;20427;-83
2021/08/09 00:50:53;;;;;;;3.80;1.83;;;18.40;97.70;;;;;;6137139;23;20387;-82
2021/08/09 00:53:21;;;;;;;2.70;1.37;;;18.40;97.90;;;;;;6162245;23;20411;-83
2021/08/09 00:55:51;;;;;;;2.67;1.70;;;18.40;97.90;;;;;;6162708;23;20415;-82
2021/08/09 00:58:18;;;;;;;2.33;1.60;;;18.30;97.80;;;;;;6137124;23;20403;-83
2021/08/09 01:00:45;;;;;;;3.93;1.50;;;18.20;98.10;;;;;;6163296;23;20490;-82
2021/08/09 01:03:12;;;;;;;3.47;1.67;;;18.10;98.40;;;;;;6163202;23;20490;-80
2021/08/09 01:05:39;;;;;;;3.20;1.97;;;18.20;98.10;;;;;;6160974;23;20398;-83
2021/08/09 01:08:12;;;;;;;4.60;1.80;;;18.10;98.30;;;;;;6162544;23;20414;-83
2021/08/09 01:11:02;;;;;;;2.90;1.70;;;18.20;98.30;;;;;;6162392;23;20403;-83
2021/08/09 01:14:02;;;;;;;5.00;2.17;;;18.10;98.50;;;;;;6160251;23;20398;-82
2021/08/09 01:16:37;;;;;;;3.07;1.90;;;18.10;98.50;;;;;;6159516;23;20403;-82
2021/08/09 01:19:27;;;;;;;4.43;2.03;;;18.10;98.50;;;;;;6160764;23;20449;-83
2021/08/09 01:22:06;;;;;;;3.90;2.10;;;18.00;98.70;;;;;;6159496;23;20423;-82
2021/08/09 01:24:55;;;;;;;2.50;1.87;;;18.00;98.80;;;;;;6161574;23;20410;-82
2021/08/09 01:27:26;;;;;;;2.80;1.60;;;17.90;98.70;;;;;;6140888;23;20846;-82
2021/08/09 01:29:56;;;;;;;2.37;1.73;;;17.80;98.90;;;;;;6136379;23;20440;-82
2021/08/09 01:32:25;;;;;;;4.20;1.60;;;17.90;99.30;;;;;;6161897;23;20429;-82
2021/08/09 01:34:52;;;;;;;3.20;1.83;;;17.90;99.10;;;;;;6163001;23;20410;-83
2021/08/09 01:37:21;;;;;;;1.87;1.70;;;17.90;99.20;;;;;;6161489;23;20417;-82
2021/08/09 01:39:49;;;;;;;2.97;1.90;;;17.90;99.20;;;;;;6135766;23;20916;-82
2021/08/09 01:42:17;;;;;;;2.80;1.77;;;17.70;99.60;;;;;;6161206;23;20426;-84
2021/08/09 01:44:43;;;;;;;3.60;2.27;;;17.70;99.70;;;;;;6157473;23;20417;-83
2021/08/09 01:47:11;;;;;;;4.63;2.07;;;17.80;99.30;;;;;;6135101;23;20410;-84
2021/08/09 01:49:38;;;;;;;2.10;1.60;;;17.90;99.30;;;;;;6163648;23;21000;-82
2021/08/09 01:52:06;;;;;;;1.87;1.77;;;17.90;99.10;;;;;;6162262;23;20434;-84
2021/08/09 01:54:33;;;;;;;3.00;2.10;;;17.80;99.30;;;;;;6137931;23;20775;-82
2021/08/09 01:57:00;;;;;;;1.63;1.27;;;17.70;99.40;;;;;;6162112;23;20414;-82
2021/08/09 01:59:27;;;;;;;3.63;1.87;;;17.80;99.40;;;;;;6162695;23;20414;-81
2021/08/09 02:01:53;;;;;;;1.60;1.50;;;17.90;99.40;;;;;;6162224;23;20433;-84
2021/08/09 02:04:21;;;;;;;3.70;1.77;;;18.00;99.50;;;;;;6160773;23;21278;-83
2021/08/09 02:06:47;;;;;;;2.60;1.93;;;18.00;99.10;;;;;;6158908;23;20395;-84
2021/08/09 02:09:16;;;;;;;1.77;1.67;;;17.90;99.60;;;;;;6170944;23;20447;-82
2021/08/09 02:11:52;;;;;;;6.47;1.93;;;17.90;99.90;;;;;;6164233;23;20423;-82
2021/08/09 02:14:21;;;;;;;2.53;2.33;;;17.80;99.90;;;;;;6170802;23;20851;-82
2021/08/09 02:16:59;;;;;;;4.30;2.50;;;17.90;99.90;;;;;;6173854;23;20403;-82
2021/08/09 02:19:47;;;;;;;1.90;1.63;;;17.80;99.90;;;;;;6141491;23;20422;-84
2021/08/09 02:22:26;;;;;;;2.10;1.90;;;17.80;99.90;;;;;;6137474;23;20930;-84
2021/08/09 02:25:11;;;;;;;4.03;1.83;;;17.90;99.90;;;;;;6163083;23;20423;-84
2021/08/09 02:27:48;;;;;;;2.10;1.87;;;17.90;99.90;;;;;;6137279;23;20430;-85
2021/08/09 02:30:19;;;;;;;2.73;2.03;;;17.90;99.90;;;;;;6136381;23;20426;-84
2021/08/09 02:32:49;;;;;;;3.50;2.10;;;17.90;99.90;;;;;;6136739;23;20440;-83
2021/08/09 02:35:20;;;;;;;5.33;2.07;;;17.70;99.90;;;;;;6139174;23;21323;-84
2021/08/09 02:37:47;;;;;;;2.60;1.63;;;17.70;99.90;;;;;;6141145;23;20403;-84
2021/08/09 02:40:15;;;;;;;3.20;1.60;;;17.70;99.90;;;;;;6142305;23;20425;-83
2021/08/09 02:42:42;;;;;;;3.73;1.60;;;17.70;99.90;;;;;;6141270;23;20437;-83
2021/08/09 02:45:10;;;;;;;5.13;2.43;;;17.60;99.90;;;;;;6137320;23;20765;-83
2021/08/09 02:47:40;;;;;;;1.77;1.67;;;17.60;99.90;;;;;;6133883;23;20505;-82
2021/08/09 02:50:20;;;;;;;2.10;1.60;;;17.40;99.90;;;;;;6159919;23;20427;-83
2021/08/09 02:52:58;;;;;;;2.80;2.27;;;17.60;99.90;;;;;;6132815;23;20463;-82
2021/08/09 02:55:26;;;;;;;2.20;1.90;;;17.70;99.90;;;;;;6161444;23;20501;-82
2021/08/09 02:57:56;;;;;;;3.07;1.90;;;17.60;99.90;;;;;;6136062;23;20410;-83
2021/08/09 03:00:25;;;;;;;2.20;1.57;;;17.50;99.90;;;;;;6161808;23;20474;-82
2021/08/09 03:02:52;;;;;;;2.83;2.10;;;17.50;99.90;;;;;;6160855;23;20434;-83
2021/08/09 03:05:20;;;;;;;7.30;2.07;;;17.50;99.90;;;;;;6161766;23;20473;-84
2021/08/09 03:07:49;;;;;;;4.60;1.70;;;17.50;99.90;;;;;;6163304;23;20411;-83
2021/08/09 03:10:17;;;;;;;2.93;1.60;;;17.40;99.90;;;;;;6165231;23;21160;-85
2021/08/09 03:16:47;;;;;;;4.13;2.30;;;17.40;99.90;;;;;;6164248;23;20434;-83
2021/08/09 03:19:13;;;;;;;1.60;1.50;;;17.50;99.90;;;;;;6141443;23;20415;-82
2021/08/09 03:21:57;;;;;;;2.20;1.67;;;17.50;99.90;;;;;;6138410;23;20454;-82
2021/08/09 03:24:31;;;;;;;4.77;1.70;;;17.40;99.90;;;;;;6140588;23;20454;-83
2021/08/09 03:27:02;;;;;;;4.00;1.60;;;17.50;99.90;;;;;;6154161;23;20403;-83
2021/08/09 03:29:36;;;;;;;2.70;1.97;;;17.40;99.90;;;;;;6156748;23;20510;-83
2021/08/09 03:32:03;;;;;;;3.37;2.10;;;17.50;99.90;;;;;;6181005;23;20433;-83
2021/08/09 03:34:48;;;;;;;2.37;1.63;;;17.60;99.90;;;;;;6180240;23;20470;-80
2021/08/09 03:37:32;;;;;;;4.10;2.07;;;17.60;99.90;;;;;;6121818;23;20398;-81
2021/08/09 03:40:05;;;;;;;4.47;2.57;;;17.40;99.90;;;;;;6137859;23;21089;-83
2021/08/09 03:42:35;;;;;;;4.20;2.27;;;17.40;99.90;;;;;;6161984;23;20437;-82
2021/08/09 03:45:04;;;;;;;2.80;1.90;;;17.40;99.90;;;;;;6163247;23;20407;-81
2021/08/09 03:47:31;;;;;;;3.37;2.00;;;17.50;99.90;;;;;;6138456;23;20437;-82
2021/08/09 03:50:05;;;;;;;4.60;2.20;;;17.50;99.90;;;;;;6163633;23;20509;-83
2021/08/09 03:52:34;;;;;;;3.13;2.20;;;17.50;99.90;;;;;;6137346;23;20510;-82
2021/08/09 03:55:14;;;;;;;3.63;2.07;;;17.40;99.90;;;;;;6139192;23;20805;-82
2021/08/09 03:57:44;;;;;;;4.17;1.93;;;17.40;99.90;;;;;;6146422;23;20420;-81
2021/08/09 04:00:13;;;;;;;3.17;1.97;;;17.60;99.90;;;;;;6139727;23;20411;-82
2021/08/09 04:02:52;;;;;;;5.03;2.20;;;17.40;99.90;;;;;;6162408;23;20466;-81
2021/08/09 04:05:20;;;;;;;3.20;2.00;;;17.30;99.90;;;;;;6138046;23;20421;-84
2021/08/09 04:07:53;;;;;;;3.23;1.80;;;17.30;99.90;;;;;;6169740;23;20415;-86
2021/08/09 04:10:44;;;;;;;5.43;2.13;;;17.40;99.90;;;;;;6143664;23;20458;-84
2021/08/09 04:13:37;;;;;;;2.90;2.00;;;17.40;99.90;;;;;;6141430;23;20414;-82
2021/08/09 04:16:13;;;;;;;3.00;1.80;;;17.60;99.90;;;;;;6140175;23;20498;-82
2021/08/09 04:18:43;;;;;;;2.60;1.53;;;17.30;99.90;;;;;;6140186;23;20454;-83
2021/08/09 04:21:18;;;;;;;1.73;1.60;;;17.20;99.90;;;;;;6165499;23;20494;-82
2021/08/09 04:23:52;;;;;;;3.00;1.63;;;17.10;99.90;;;;;;6167583;23;20418;-84
2021/08/09 04:26:23;;;;;;;1.83;1.50;;;17.20;99.90;;;;;;6169701;23;20438;-82
2021/08/09 04:28:50;;;;;;;3.40;1.80;;;17.50;99.90;;;;;;6171834;23;20407;-83
2021/08/09 04:31:20;;;;;;;2.10;1.70;;;17.60;99.90;;;;;;6175054;23;20446;-80
2021/08/09 04:33:53;;;;;;;3.00;1.63;;;17.50;99.90;;;;;;6149776;23;20426;-82
2021/08/09 04:36:39;;;;;;;4.33;1.93;;;17.50;99.90;;;;;;6177288;23;20430;-81
2021/08/09 04:39:21;;;;;;;3.53;1.40;;;17.40;99.90;;;;;;6131089;23;20465;-83
2021/08/09 04:41:47;;;;;;;3.63;1.80;;;17.40;99.90;;;;;;6169455;23;20426;-83
2021/08/09 04:44:34;;;;;;;5.07;1.80;;;17.30;99.90;;;;;;6164796;23;20414;-83
2021/08/09 04:47:03;;;;;;;2.20;1.70;;;17.40;99.90;;;;;;6158755;23;20757;-83
2021/08/09 04:49:30;;;;;;;2.00;1.90;;;17.60;99.90;;;;;;6134976;23;20534;-83
2021/08/09 04:51:56;;;;;;;3.03;2.23;;;17.70;99.90;;;;;;6146645;23;20431;-83
2021/08/09 04:54:50;;;;;;;1.20;1.10;;;17.60;99.90;;;;;;6171706;23;20395;-83
2021/08/09 04:57:30;;;;;;;3.00;2.27;;;17.70;99.90;;;;;;6153871;23;20414;-82
2021/08/09 05:00:11;;;;;;;2.53;1.87;;;17.80;99.80;;;;;;6138974;23;20506;-83
2021/08/09 05:02:38;;;;;;;2.00;1.90;;;17.90;99.60;;;;;;6168398;23;20503;-82
2021/08/09 05:05:34;;;;;;;1.60;1.50;;;17.80;99.80;;;;;;6150550;23;20403;-83
2021/08/09 05:08:22;;;;;;;4.90;1.60;;;17.90;99.50;;;;;;6152262;23;20403;-83
2021/08/09 05:11:11;;;;;;;3.47;1.93;;;17.80;99.50;;;;;;6156217;23;20519;-83
2021/08/09 05:13:47;;;;;;;2.77;1.90;;;17.90;99.90;;;;;;6139599;23;20415;-83
2021/08/09 05:16:17;;;;;;;3.00;2.00;;;17.80;99.90;;;;;;6137339;23;20438;-83
2021/08/09 05:19:30;;;;;;;2.43;2.10;;;17.80;99.90;;;;;;6137805;23;20462;-84
2021/08/09 05:22:27;;;;;;;3.07;1.83;;;17.90;99.90;;;;;;6133360;23;20424;-83
2021/08/09 05:24:59;;;;;;;2.83;2.17;;;17.90;99.90;;;;;;6112196;23;20423;-83
2021/08/09 05:27:26;;;;;;;2.93;2.20;;;18.00;99.70;;;;;;6107294;23;20469;-83
2021/08/09 05:29:53;;;;;;;3.07;2.07;;;17.80;99.90;;;;;;6108724;23;20447;-83
2021/08/09 05:32:22;;;;;;;5.60;2.63;;;17.90;99.90;;;;;;6108364;23;20438;-81
2021/08/09 05:34:53;;;;;;;4.20;1.73;;;17.80;99.90;;;;;;6110094;23;20919;-82
2021/08/09 05:37:36;;;;;;;1.70;1.60;;;17.90;99.90;;;;;;6109215;23;20803;-84
2021/08/09 05:40:19;;;;;;;3.07;2.47;;;18.00;99.90;;;;;;6109810;23;20418;-84
2021/08/09 05:42:57;;;;;;;2.87;1.60;;;18.00;99.90;;;;;;6135327;23;20440;-82
2021/08/09 05:45:25;;;;;;;2.10;1.63;;;17.90;99.90;;;;;;6117555;23;20395;-84
2021/08/09 05:47:52;;;;;;;4.20;1.93;;;18.00;99.90;;;;;;6117436;23;20416;-83
2021/08/09 05:50:28;;;;;;;5.00;1.90;;;18.00;99.90;;;;;;6144390;23;21022;-83
2021/08/09 05:52:57;;;;;;;4.40;2.83;;;17.90;99.90;;;;;;6113101;23;20439;-84
2021/08/09 05:55:29;;;;;;;2.97;2.67;;;18.00;99.90;;;;;;6136098;23;20426;-83
2021/08/09 05:57:56;;;;;;;4.83;2.03;;;17.90;99.90;;;;;;6107400;23;20979;-82
2021/08/09 06:00:24;;;;;;;3.23;1.97;;;17.90;99.90;;;;;;6109091;23;20416;-83
2021/08/09 06:03:05;;;;;;;3.00;1.67;;;18.00;99.90;;;;;;6132099;23;20420;-83
2021/08/09 06:06:01;;;;;;;2.20;1.90;;;17.90;99.90;;;;;;6110861;23;20478;-83
2021/08/09 06:08:31;;;;;;;2.53;1.50;;;18.00;99.90;;;;;;6108518;23;20435;-84
2021/08/09 06:11:46;;;;;;;;;;;;;;;;;;;;;
2021/08/09 06:14:40;;;;;;;2.67;1.83;;;18.10;99.90;;;;;;6133776;23;20412;-83
2021/08/09 06:17:24;;;;;;;2.47;2.20;;;18.10;99.80;;;;;;6109869;23;20785;-83
2021/08/09 06:20:10;;;;;;;2.60;1.83;;;18.30;99.80;;;;;;6136358;23;20412;-82
2021/08/09 06:22:42;;;;;;;4.10;2.20;;;18.30;99.30;;;;;;6135290;23;20431;-84
2021/08/09 06:25:12;;;;;;;2.97;1.83;;;18.40;99.20;;;;;;6133839;23;20830;-83
2021/08/09 06:28:15;;;;;;;2.77;2.00;;;18.40;99.20;;;;;;6124872;23;20400;-84
2021/08/09 06:30:41;;;;;;;2.00;1.63;;;18.40;99.20;;;;;;6135799;23;20424;-85
2021/08/09 06:33:20;;;;;;;2.83;2.07;;;18.50;99.40;;;;;;6134552;23;20411;-83
2021/08/09 06:35:47;;;;;;;6.40;2.30;;;18.50;99.40;;;;;;6136516;23;20404;-84
2021/08/09 06:38:20;;;;;;;2.57;2.37;;;18.50;99.40;;;;;;6136724;23;20435;-83
2021/08/09 06:40:55;;;;;;;3.67;1.97;;;18.60;99.30;;;;;;6156658;23;20506;-83
2021/08/09 06:43:22;;;;;;;2.40;1.90;;;18.70;99.10;;;;;;6135239;23;20444;-84
2021/08/09 06:45:58;;;;;;;4.77;1.80;;;18.60;99.00;;;;;;6134878;23;20410;-83
2021/08/09 06:48:31;;;;;;;5.00;2.00;;;18.50;99.50;;;;;;6132954;23;20801;-83
2021/08/09 06:51:18;;;;;;;;;;;;;;;;;;;;;
2021/08/09 06:54:08;;;;;;;2.50;1.90;;;18.60;99.30;;;;;;6135988;23;20495;-84
2021/08/09 06:56:54;;;;;;;4.50;2.00;;;18.60;99.50;;;;;;6133455;23;20472;-85
2021/08/09 06:59:36;;;;;;;3.73;2.20;;;18.70;98.40;;;;;;6133968;23;20428;-85
2021/08/09 07:02:08;;;;;;;1.63;1.40;;;18.80;98.00;;;;;;6134716;23;20473;-82
2021/08/09 07:04:50;;;;;;;1.87;1.57;;;19.00;97.60;;;;;;6141761;23;20423;-83
2021/08/09 07:07:38;;;;;;;2.60;1.83;;;19.10;97.20;;;;;;6137635;23;20447;-83
2021/08/09 07:10:44;;;;;;;3.30;1.80;;;19.30;96.80;;;;;;6134430;23;20471;-85
2021/08/09 07:13:25;;;;;;;1.93;1.73;;;19.50;96.40;;;;;;6119671;23;20420;-84
2021/08/09 07:16:00;;;;;;;2.00;1.43;;;19.70;95.80;;;;;;6133838;23;20412;-83
2021/08/09 07:18:44;;;;;;;2.57;1.40;;;19.80;95.40;;;;;;6132447;23;20408;-83
2021/08/09 07:21:35;;;;;;;3.73;1.70;;;19.50;95.80;;;;;;6135203;23;20431;-83
2021/08/09 07:24:49;;;;;;;2.20;1.70;;;19.30;96.20;;;;;;6137242;23;20404;-82
2021/08/09 07:27:58;;;;;;;3.30;1.70;;;19.50;96.30;;;;;;6062641;23;20377;-82
2021/08/09 07:30:33;;;;;;;3.13;1.47;;;20.30;95.30;;;;;;6141424;23;20455;-85
2021/08/09 07:33:46;;;;;;;2.43;1.77;;;21.20;93.80;;;;;;6151725;23;20438;-85
2021/08/09 07:37:06;;;;;;;2.90;1.63;;;21.80;92.30;;;;;;6154584;23;20406;-84
2021/08/09 07:40:05;;;;;;;3.60;1.70;;;22.90;90.10;;;;;;6156051;23;20409;-84
2021/08/09 07:42:35;;;;;;;1.43;1.23;;;23.30;87.10;;;;;;6137629;23;20423;-85
2021/08/09 07:45:26;;;;;;;4.53;1.50;;;24.20;84.20;;;;;;6159981;23;20427;-83
2021/08/09 07:48:21;;;;;;;2.23;2.00;;;25.80;79.70;;;;;;6077637;23;20466;-83
2021/08/09 07:51:27;;;;;;;2.40;1.50;;;27.40;73.50;;;;;;6138799;23;20514;-84
2021/08/09 07:54:19;;;;;;;2.77;1.70;;;27.70;70.50;;;;;;6140094;23;20414;-86
2021/08/09 07:57:06;;;;;;;2.17;1.90;;;29.20;62.70;;;;;;6137908;23;20423;-83
2021/08/09 08:00:31;;;;;;;3.67;1.90;;;28.30;62.70;;;;;;6136120;23;20541;-84
2021/08/09 08:04:10;;;;;;;3.17;1.27;;;27.30;65.70;;;;;;6070972;23;20419;-84
2021/08/09 08:08:11;;;;;;;;;;;;;;;;;;;;;
2021/08/09 08:20:10;;;;;;;;;;;;;;;;;;;;;
2021/08/09 08:49:14;;;;;;;4.27;1.70;;;23.90;76.50;;;;;;6108858;23;20405;-85
2021/08/09 08:55:01;;;;;;;1.70;1.53;;;26.60;68.10;;;;;;6178691;23;20470;-83
2021/08/09 08:57:33;;;;;;;2.40;1.23;;;26.80;66.20;;;;;;6179040;23;20406;-83
2021/08/09 09:00:04;;;;;;;1.63;1.10;;;26.40;66.40;;;;;;6177870;23;20421;-83
2021/08/09 09:06:03;;;;;;;;;;;;;;;;;;;;;
2021/08/09 09:09:59;;;;;;;3.70;1.87;;;26.40;66.90;;;;;;6076716;23;20745;-84
2021/08/09 09:18:46;;;;;;;1.63;1.33;;;29.50;54.60;;;;;;6174761;23;20454;-83
2021/08/09 10:00:26;;;;;;;;;;;;;;;;;;;;;
2021/08/09 10:08:32;;;;;;;;;;;;;;;;;;;;;
2021/08/09 10:11:30;;;;;;;3.53;1.20;;;24.10;69.70;;;;;;5844599;24;20663;-83
2021/08/09 10:13:59;;;;;;;4.00;1.17;;;24.90;65.10;;;;;;6002964;24;20384;-83
2021/08/09 10:27:51;;;;;;;3.50;1.47;;;25.60;58.90;;;;;;6029709;23;20403;-85
2021/08/09 10:30:31;;;;;;;2.70;1.10;;;24.90;59.50;;;;;;6006737;23;21017;-85
2021/08/09 10:33:52;;;;;;;5.07;1.30;;;24.40;60.70;;;;;;5999803;24;20427;-85
2021/08/09 10:39:59;;;;;;;1.97;1.10;;;24.10;61.30;;;;;;5990514;24;20419;-83
2021/08/09 10:42:43;;;;;;;5.90;1.47;;;24.90;59.50;;;;;;5985968;24;20450;-83
2021/08/09 10:47:16;;;;;;;2.90;1.23;;;24.60;59.70;;;;;;6038378;23;20420;-84
2021/08/09 10:50:06;;;;;;;2.70;1.87;;;24.70;59.70;;;;;;6065046;23;20955;-85
2021/08/09 10:53:25;;;;;;;1.73;1.10;;;25.10;59.60;;;;;;6061458;23;20531;-85
2021/08/09 11:00:12;;;;;;;1.93;1.00;;;25.10;58.40;;;;;;6012646;23;20427;-86
2021/08/09 11:28:24;;;;;;;2.23;1.20;;;26.50;54.60;;;;;;6129499;23;20602;-85
2021/08/09 11:30:52;;;;;;;1.23;0.80;;;26.40;55.40;;;;;;6110712;23;20503;-85
2021/08/09 11:33:30;;;;;;;4.30;1.03;;;26.30;55.80;;;;;;6108289;23;20470;-84
2021/08/09 11:36:13;;;;;;;1.70;0.80;;;26.30;55.90;;;;;;6132585;23;20411;-84
2021/08/09 11:39:02;;;;;;;1.27;1.00;;;27.50;53.60;;;;;;6108518;23;20475;-84
2021/08/09 11:41:32;;;;;;;0.90;0.80;;;27.30;53.10;;;;;;6105758;23;20439;-86
2021/08/09 11:44:08;;;;;;;1.20;1.10;;;27.50;52.70;;;;;;6108959;23;20449;-84
2021/08/09 11:47:21;;;;;;;;;;;;;;;;;;;;;
2021/08/09 11:50:03;;;;;;;12.10;11.20;;;26.40;54.40;;;;;;6129943;23;20479;-85
2021/08/09 11:52:39;;;;;;;3.57;1.50;;;26.40;54.70;;;;;;6108094;23;20843;-85
2021/08/09 12:16:51;;;;;;;2.67;1.63;;;25.00;58.00;;;;;;6157222;23;20477;-85
2021/08/09 12:19:59;;;;;;;3.63;1.40;;;25.20;58.10;;;;;;6166393;23;20383;-83
2021/08/09 12:23:44;;;;;;;2.77;1.20;;;25.10;58.20;;;;;;6165618;23;20518;-83
2021/08/09 12:26:33;;;;;;;1.90;1.10;;;25.20;58.40;;;;;;6155003;23;20454;-82
2021/08/09 12:30:23;;;;;;;;;;;;;;;;;;;;;
2021/08/09 12:49:33;;;;;;;2.10;1.13;;;24.20;59.30;;;;;;6152972;23;20475;-82
2021/08/09 12:53:37;;;;;;;;;;;;;;;;;;;;;
2021/08/09 13:31:01;;;;;;;1.83;1.50;;;23.40;76.30;;;;;;6155973;23;20987;-83
2021/08/09 13:37:32;;;;;;;2.47;0.80;;;22.80;78.20;;;;;;6162027;23;20367;-82
2021/08/09 13:40:04;;;;;;;2.17;1.70;;;22.80;78.90;;;;;;6137415;23;20403;-82
2021/08/09 13:46:47;;;;;;;2.50;1.20;;;22.70;79.40;;;;;;6098661;23;20450;-85
2021/08/09 13:49:47;;;;;;;3.77;1.70;;;22.70;80.20;;;;;;6156361;23;20415;-84
2021/08/09 14:00:48;;;;;;;4.37;1.40;;;22.70;85.30;;;;;;6135171;23;20453;-82
2021/08/09 14:03:57;;;;;;;2.23;1.80;;;22.70;85.70;;;;;;6134130;23;20475;-84
2021/08/09 14:10:34;;;;;;;2.73;1.60;;;22.60;87.10;;;;;;6082936;23;20832;-81
2021/08/09 14:13:22;;;;;;;1.50;1.40;;;22.60;87.00;;;;;;6134782;23;20435;-81
2021/08/09 14:15:56;;;;;;;1.70;1.40;;;22.60;88.40;;;;;;6134306;23;20502;-83
2021/08/09 14:19:06;;;;;;;1.60;1.50;;;22.80;86.70;;;;;;6147319;23;20400;-82
2021/08/09 14:21:42;;;;;;;2.90;1.37;;;22.80;88.50;;;;;;6147861;23;20423;-84
2021/08/09 14:24:33;;;;;;;2.30;1.30;;;22.80;89.00;;;;;;6144181;23;20494;-84
2021/08/09 14:27:21;;;;;;;;;;;;;;;;;;;;;
2021/08/09 14:30:05;;;;;;;2.13;1.20;;;22.90;86.00;;;;;;6090920;23;20411;-83
2021/08/09 14:32:46;;;;;;;2.20;1.60;;;23.30;84.80;;;;;;6140955;23;20499;-82
2021/08/09 14:35:57;;;;;;;4.40;1.63;;;23.40;85.30;;;;;;6139831;23;20455;-84
2021/08/09 14:38:47;;;;;;;1.57;1.40;;;23.50;84.80;;;;;;6127271;23;20396;-85
2021/08/09 14:41:40;;;;;;;2.17;1.50;;;23.50;84.10;;;;;;6111706;23;20459;-83
2021/08/09 14:44:31;;;;;;;1.97;1.30;;;23.20;83.10;;;;;;6117663;23;20416;-84
2021/08/09 14:47:17;;;;;;;3.27;1.60;;;23.10;81.80;;;;;;6133585;23;20419;-85
2021/08/09 14:50:57;;;;;;;;;;;;;;;;;;;;;
2021/08/09 14:53:52;;;;;;;3.37;1.63;;;22.80;83.20;;;;;;6136745;23;20392;-86
2021/08/09 14:56:33;;;;;;;1.77;1.40;;;22.80;82.40;;;;;;6137322;23;20403;-84
2021/08/09 14:59:18;;;;;;;1.93;1.73;;;22.90;82.00;;;;;;6112128;23;20434;-83
2021/08/09 15:01:59;;;;;;;2.40;1.37;;;22.80;81.10;;;;;;6114197;23;20447;-84
2021/08/09 15:04:35;;;;;;;1.83;1.10;;;22.50;81.40;;;;;;6137305;23;20395;-84
2021/08/09 15:07:04;;;;;;;3.70;1.73;;;22.60;82.20;;;;;;6135108;23;20415;-85
2021/08/09 15:13:45;;;;;;;3.07;1.80;;;22.50;81.50;;;;;;6116671;23;20439;-84
2021/08/09 15:16:36;;;;;;;3.10;1.70;;;22.40;83.10;;;;;;6113405;23;20773;-84
2021/08/09 15:22:21;;;;;;;2.30;1.37;;;22.50;82.80;;;;;;6164913;23;20458;-84
2021/08/09 15:25:18;;;;;;;3.43;1.50;;;22.60;83.00;;;;;;6121671;23;20457;-82
2021/08/09 15:28:10;;;;;;;4.97;1.80;;;22.60;82.80;;;;;;6163862;23;20446;-84
2021/08/09 15:34:28;;;;;;;3.27;1.30;;;22.50;83.90;;;;;;6106258;23;20416;-84
2021/08/09 15:37:21;;;;;;;1.97;1.50;;;22.50;86.10;;;;;;6104802;23;20788;-82
2021/08/09 15:40:27;;;;;;;2.00;1.67;;;22.90;85.60;;;;;;6107420;23;20413;-84
2021/08/09 15:43:17;;;;;;;2.00;1.70;;;22.80;85.80;;;;;;6047456;23;20431;-83
2021/08/09 15:45:52;;;;;;;2.50;2.00;;;22.70;88.90;;;;;;6024236;23;20402;-83
2021/08/09 15:48:27;;;;;;;2.33;2.00;;;22.70;89.60;;;;;;6047260;23;20410;-84
2021/08/09 15:53:54;;;;;;;4.10;2.00;;;23.00;86.80;;;;;;6168055;23;20430;-83
2021/08/09 15:57:09;;;;;;;3.07;1.90;;;22.90;85.90;;;;;;6124259;23;20753;-84
2021/08/09 15:59:48;;;;;;;5.33;1.80;;;22.80;85.70;;;;;;6143752;23;20418;-83
2021/08/09 16:02:30;;;;;;;2.40;1.47;;;23.00;85.50;;;;;;6153218;23;20434;-84
2021/08/09 16:05:21;;;;;;;2.20;2.00;;;23.10;84.80;;;;;;6167787;23;20407;-83
2021/08/09 16:07:58;;;;;;;5.23;1.47;;;23.30;87.10;;;;;;6168788;23;20473;-83
2021/08/09 16:10:43;;;;;;;1.67;1.57;;;23.50;85.30;;;;;;6168657;23;20409;-84
2021/08/09 16:13:38;;;;;;;2.67;2.00;;;23.20;87.00;;;;;;6145990;23;20403;-83
2021/08/09 16:16:11;;;;;;;2.90;2.60;;;23.00;88.60;;;;;;6164895;23;20434;-82
2021/08/09 16:18:57;;;;;;;4.10;2.73;;;23.30;90.00;;;;;;6160910;23;20502;-83
2021/08/09 16:21:31;;;;;;;7.30;3.03;;;23.00;89.00;;;;;;6163487;23;20431;-83
2021/08/09 16:27:33;;;;;;;2.73;1.80;;;23.20;87.00;;;;;;6012297;23;20441;-84
2021/08/09 16:30:42;;;;;;;5.20;1.83;;;23.40;86.40;;;;;;6031879;23;20417;-83
2021/08/09 16:33:17;;;;;;;3.13;1.83;;;23.20;86.30;;;;;;6047953;23;20521;-83
2021/08/09 16:36:26;;;;;;;1.93;1.73;;;23.20;84.70;;;;;;6054893;23;20406;-84
2021/08/09 16:39:22;;;;;;;2.83;1.77;;;23.20;84.00;;;;;;6050107;23;20413;-82
2021/08/09 16:42:01;;;;;;;3.20;1.93;;;23.40;82.80;;;;;;6046146;23;20430;-83
2021/08/09 16:45:02;;;;;;;2.90;1.50;;;23.10;83.10;;;;;;6017585;23;20447;-84
2021/08/09 16:47:49;;;;;;;3.03;1.67;;;23.00;84.20;;;;;;6046747;23;20408;-84
2021/08/09 16:50:26;;;;;;;2.77;1.57;;;22.80;85.30;;;;;;6045699;23;20413;-83
2021/08/09 16:52:59;;;;;;;2.33;2.03;;;22.60;84.60;;;;;;6060133;23;20457;-83
2021/08/09 16:55:48;;;;;;;2.30;1.53;;;22.50;85.10;;;;;;6045854;23;20434;-81
2021/08/09 16:58:32;;;;;;;3.33;1.57;;;22.40;85.50;;;;;;6039877;23;20980;-83
2021/08/09 17:01:21;;;;;;;;;;;;;;;;;;;;;
2021/08/09 17:04:03;;;;;;;1.40;1.30;;;21.70;87.40;;;;;;6137089;23;20439;-82
2021/08/09 17:06:42;;;;;;;1.77;1.40;;;21.60;89.30;;;;;;6134061;23;20498;-80
2021/08/09 17:09:25;;;;;;;1.73;1.50;;;21.40;90.20;;;;;;6137379;23;20422;-82
2021/08/09 17:12:14;;;;;;;;;;;;;;;;;;;;;
2021/08/09 17:14:44;;;;;;;1.20;1.00;;;21.10;91.60;;;;;;6139354;23;20471;-81
2021/08/09 17:17:37;;;;;;;1.20;1.10;;;21.00;92.10;;;;;;6134961;23;20412;-82
2021/08/09 17:20:15;;;;;;;2.33;1.40;;;20.90;92.40;;;;;;6133676;23;20435;-82
2021/08/09 17:26:24;;;;;;;2.00;1.40;;;20.80;92.20;;;;;;6108558;23;20752;-81
2021/08/09 17:28:57;;;;;;;1.77;1.13;;;21.10;92.20;;;;;;6136416;23;20432;-83
2021/08/09 17:31:30;;;;;;;3.47;1.23;;;21.10;92.40;;;;;;6135274;23;20471;-83
2021/08/09 17:34:11;;;;;;;2.30;1.33;;;20.70;92.40;;;;;;6138502;23;20417;-83
2021/08/09 17:36:49;;;;;;;2.20;1.40;;;20.40;93.10;;;;;;6135185;23;20443;-82
2021/08/09 17:43:20;;;;;;;3.17;2.43;;;20.40;94.70;;;;;;5961216;24;20416;-81
2021/08/09 17:45:52;;;;;;;5.70;2.67;;;20.60;95.30;;;;;;6004460;23;20481;-83
2021/08/09 17:52:21;;;;;;;2.93;1.87;;;20.60;95.50;;;;;;6014904;23;20461;-83
2021/08/09 17:55:14;;;;;;;;;;;;;;;;;;;;;
2021/08/09 17:57:54;;;;;;;10.20;7.67;;;20.50;96.00;;;;;;6153279;23;20510;-81
2021/08/09 18:00:44;;;;;;;2.47;2.00;;;20.30;97.90;;;;;;6165612;23;20399;-83
2021/08/09 18:03:27;;;;;;;4.77;2.10;;;20.30;97.60;;;;;;6163009;23;20427;-82
2021/08/09 18:06:16;;;;;;;4.17;2.73;;;20.40;97.90;;;;;;6135969;23;20391;-81
2021/08/09 18:08:53;;;;;;;2.70;2.13;;;20.50;97.40;;;;;;6142864;23;20475;-86
2021/08/09 18:11:24;;;;;;;2.00;1.90;;;20.30;97.80;;;;;;6137683;23;20490;-84
2021/08/09 18:14:01;;;;;;;4.53;2.47;;;20.10;98.50;;;;;;6139456;23;20783;-83
2021/08/09 18:16:46;;;;;;;2.77;1.90;;;20.20;99.30;;;;;;6165316;23;20410;-83
2021/08/09 18:19:14;;;;;;;15.73;1.90;;;20.10;99.70;;;;;;6141475;23;20406;-83
2021/08/09 18:21:54;;;;;;;1.97;1.67;;;20.00;99.70;;;;;;6164138;23;20962;-81
2021/08/09 18:25:11;;;;;;;;;;;;;;;;;;;;;
2021/08/09 18:28:19;;;;;;;1.77;1.00;;;19.90;99.30;;;;;;6178506;23;20506;-83
2021/08/09 18:30:49;;;;;;;1.40;1.30;;;20.10;99.20;;;;;;6182693;23;20397;-79
2021/08/09 18:33:23;;;;;;;2.50;1.50;;;19.90;98.80;;;;;;6157720;23;20454;-83
2021/08/09 18:36:03;;;;;;;1.87;1.43;;;19.80;99.00;;;;;;6179484;23;20889;-85
2021/08/09 18:38:33;;;;;;;2.20;1.20;;;19.50;99.90;;;;;;6161889;23;20474;-84
2021/08/09 18:41:05;;;;;;;2.43;1.60;;;19.40;99.90;;;;;;6165655;23;20430;-82
2021/08/09 18:43:40;;;;;;;2.50;2.10;;;19.20;99.90;;;;;;6163403;23;20407;-84